Time;durP1;ratioP1;P1;durP2;ratioP2;P2;SDS_P1;SDS_P2;PMS_P1;PMS_P2;Temp;Humidity;BMP_temperature;BMP_pressure;BME280_temperature;BME280_humidity;BME280_pressure;Samples;Min_cycle;Max_cycle;Signal;HPM_P1;HPM_P2
2024/01/06 00:01:28;;;;;;;9.25;5.40;;;;;;;;;;4967439;28;20544;-73
2024/01/06 00:03:57;;;;;;;11.82;5.20;;;;;;;;;;4954161;28;20410;-73
2024/01/06 00:06:24;;;;;;;17.00;5.50;;;;;;;;;;4951266;28;20059;-73
2024/01/06 00:08:53;;;;;;;7.60;4.53;;;;;;;;;;4956090;28;20523;-73
2024/01/06 00:11:21;;;;;;;10.57;5.00;;;;;;;;;;4952424;28;20046;-73
2024/01/06 00:13:48;;;;;;;12.88;4.75;;;;;;;;;;4950588;28;20055;-72
2024/01/06 00:16:18;;;;;;;9.93;5.45;;;;;;;;;;4952878;28;20486;-73
2024/01/06 00:18:46;;;;;;;12.45;5.20;;;;;;;;;;4952089;28;20062;-73
2024/01/06 00:21:15;;;;;;;11.48;5.18;;;;;;;;;;4950979;28;20486;-73
2024/01/06 00:23:42;;;;;;;10.60;5.85;;;;;;;;;;4948049;28;20058;-73
2024/01/06 00:26:12;;;;;;;12.55;5.15;;;;;;;;;;4952967;28;20055;-74
2024/01/06 00:28:40;;;;;;;14.25;5.53;;;;;;;;;;4950308;28;20050;-74
2024/01/06 00:31:08;;;;;;;11.95;6.13;;;;;;;;;;4947076;28;20135;-74
2024/01/06 00:33:35;;;;;;;13.02;5.85;;;;;;;;;;4949002;28;20414;-73
2024/01/06 00:36:02;;;;;;;11.60;5.68;;;;;;;;;;4948186;28;20158;-74
2024/01/06 00:38:31;;;;;;;15.00;5.13;;;;;;;;;;4950902;28;20502;-74
2024/01/06 00:40:58;;;;;;;13.80;6.05;;;;;;;;;;4948838;28;20129;-74
2024/01/06 00:43:25;;;;;;;12.75;5.90;;;;;;;;;;4953022;28;20062;-74
2024/01/06 00:45:53;;;;;;;14.50;5.78;;;;;;;;;;4948030;28;20055;-74
2024/01/06 00:48:20;;;;;;;13.93;5.72;;;;;;;;;;4950899;28;20035;-74
2024/01/06 00:50:47;;;;;;;14.23;5.30;;;;;;;;;;4951710;28;20072;-74
2024/01/06 00:53:15;;;;;;;15.70;5.45;;;;;;;;;;4952771;28;20058;-74
2024/01/06 00:55:44;;;;;;;11.88;5.50;;;;;;;;;;4951836;28;20055;-74
2024/01/06 00:58:11;;;;;;;12.13;5.80;;;;;;;;;;4952738;28;20131;-74
2024/01/06 01:00:38;;;;;;;12.30;5.82;;;;;;;;;;4953429;28;20058;-74
2024/01/06 01:03:06;;;;;;;8.38;4.93;;;;;;;;;;4956160;28;20490;-74
2024/01/06 01:05:32;;;;;;;11.93;5.57;;;;;;;;;;4949988;28;20504;-74
2024/01/06 01:07:59;;;;;;;9.93;5.35;;;;;;;;;;4954631;28;20162;-74
2024/01/06 01:10:26;;;;;;;8.40;5.07;;;;;;;;;;4956790;28;20043;-74
2024/01/06 01:12:55;;;;;;;13.65;5.07;;;;;;;;;;4953650;28;20105;-74
2024/01/06 01:15:22;;;;;;;14.20;4.82;;;;;;;;;;4952055;28;20076;-74
2024/01/06 01:17:50;;;;;;;11.45;5.07;;;;;;;;;;4954865;28;20105;-74
2024/01/06 01:20:17;;;;;;;11.35;5.25;;;;;;;;;;4961214;28;20047;-73
2024/01/06 01:22:44;;;;;;;13.20;4.95;;;;;;;;;;4957016;28;20510;-74
2024/01/06 01:25:12;;;;;;;15.38;5.43;;;;;;;;;;4955020;28;20059;-74
2024/01/06 01:27:40;;;;;;;7.15;4.68;;;;;;;;;;4954588;28;20082;-75
2024/01/06 01:30:09;;;;;;;11.82;5.70;;;;;;;;;;4956060;28;20047;-74
2024/01/06 01:32:36;;;;;;;12.25;4.80;;;;;;;;;;4954329;28;20047;-74
2024/01/06 01:35:04;;;;;;;13.30;5.00;;;;;;;;;;4953240;28;20061;-74
2024/01/06 01:37:31;;;;;;;10.30;4.40;;;;;;;;;;4953268;28;20054;-74
2024/01/06 01:39:58;;;;;;;14.77;4.80;;;;;;;;;;4956068;28;20039;-74
2024/01/06 01:42:25;;;;;;;12.23;5.72;;;;;;;;;;4947204;28;20059;-73
2024/01/06 01:44:53;;;;;;;11.77;4.97;;;;;;;;;;4967253;28;20058;-74
2024/01/06 01:47:22;;;;;;;10.88;5.10;;;;;;;;;;4949825;28;20051;-73
2024/01/06 01:49:49;;;;;;;17.50;5.22;;;;;;;;;;4953903;28;20054;-74
2024/01/06 01:52:16;;;;;;;21.08;6.45;;;;;;;;;;4956922;28;20055;-74
2024/01/06 01:54:44;;;;;;;8.73;5.40;;;;;;;;;;4954930;28;20061;-74
2024/01/06 01:57:13;;;;;;;18.30;5.88;;;;;;;;;;4955013;28;20051;-73
2024/01/06 01:59:40;;;;;;;12.65;7.20;;;;;;;;;;4961620;28;20047;-74
2024/01/06 02:02:08;;;;;;;12.32;5.22;;;;;;;;;;4955224;28;20747;-73
2024/01/06 02:04:36;;;;;;;14.23;6.45;;;;;;;;;;4954790;28;20047;-74
2024/01/06 02:07:04;;;;;;;14.70;6.07;;;;;;;;;;4954871;28;20054;-74
2024/01/06 02:09:31;;;;;;;11.63;6.07;;;;;;;;;;4954366;28;20391;-73
2024/01/06 02:11:59;;;;;;;33.00;9.23;;;;;;;;;;4953573;28;20046;-74
2024/01/06 02:14:26;;;;;;;15.73;6.40;;;;;;;;;;4953727;28;20057;-74
2024/01/06 02:16:53;;;;;;;15.52;6.38;;;;;;;;;;4955205;28;20065;-74
2024/01/06 02:19:21;;;;;;;16.52;6.78;;;;;;;;;;4948547;28;20058;-73
2024/01/06 02:21:51;;;;;;;16.52;6.13;;;;;;;;;;4951476;28;20066;-74
2024/01/06 02:24:19;;;;;;;12.57;6.50;;;;;;;;;;4945214;28;20061;-73
2024/01/06 02:26:46;;;;;;;12.15;5.70;;;;;;;;;;4954334;28;20063;-74
2024/01/06 02:29:13;;;;;;;12.77;6.25;;;;;;;;;;4954495;28;20058;-74
2024/01/06 02:31:41;;;;;;;18.60;6.18;;;;;;;;;;4947506;28;20050;-74
2024/01/06 02:34:08;;;;;;;14.00;6.43;;;;;;;;;;4954549;28;20082;-74
2024/01/06 02:36:35;;;;;;;14.02;5.63;;;;;;;;;;4954213;28;20051;-74
2024/01/06 02:39:04;;;;;;;15.50;6.40;;;;;;;;;;4954352;28;20421;-73
2024/01/06 02:41:31;;;;;;;11.00;6.03;;;;;;;;;;4956395;28;20509;-73
2024/01/06 02:43:59;;;;;;;13.25;5.35;;;;;;;;;;4953427;28;20070;-74
2024/01/06 02:46:26;;;;;;;13.75;5.15;;;;;;;;;;4955245;28;20057;-74
2024/01/06 02:48:53;;;;;;;15.15;5.53;;;;;;;;;;4948823;28;20077;-74
2024/01/06 02:51:20;;;;;;;10.65;5.35;;;;;;;;;;4941164;28;20133;-73
2024/01/06 02:53:48;;;;;;;16.15;5.47;;;;;;;;;;4951584;28;20129;-74
2024/01/06 02:56:16;;;;;;;9.90;5.38;;;;;;;;;;4952782;28;20081;-74
2024/01/06 02:58:44;;;;;;;17.15;5.93;;;;;;;;;;4958623;28;20096;-73
2024/01/06 03:01:13;;;;;;;16.33;5.80;;;;;;;;;;4955433;28;20126;-74
2024/01/06 03:03:40;;;;;;;8.65;5.05;;;;;;;;;;4970698;28;20061;-74
2024/01/06 03:06:07;;;;;;;10.30;5.32;;;;;;;;;;4952117;28;20406;-74
2024/01/06 03:08:35;;;;;;;8.23;4.72;;;;;;;;;;4971086;28;20054;-74
2024/01/06 03:11:04;;;;;;;10.13;4.78;;;;;;;;;;4951448;28;20047;-74
2024/01/06 03:13:33;;;;;;;12.57;5.22;;;;;;;;;;4948285;28;20117;-74
2024/01/06 03:16:03;;;;;;;18.55;5.78;;;;;;;;;;4952591;28;20050;-74
2024/01/06 03:18:30;;;;;;;16.75;5.75;;;;;;;;;;4954233;28;20417;-74
2024/01/06 03:20:57;;;;;;;13.43;5.45;;;;;;;;;;4950394;28;20047;-74
2024/01/06 03:23:24;;;;;;;12.25;5.00;;;;;;;;;;4952532;28;20145;-74
2024/01/06 03:25:52;;;;;;;12.43;4.05;;;;;;;;;;4952643;28;20413;-74
2024/01/06 03:28:19;;;;;;;14.50;5.20;;;;;;;;;;4950237;28;20046;-74
2024/01/06 03:30:48;;;;;;;12.18;4.68;;;;;;;;;;4967309;28;20047;-74
2024/01/06 03:33:15;;;;;;;13.25;5.38;;;;;;;;;;4953106;28;20490;-74
2024/01/06 03:35:42;;;;;;;10.00;5.22;;;;;;;;;;4953855;28;20055;-74
2024/01/06 03:38:09;;;;;;;13.82;5.43;;;;;;;;;;4951276;28;20054;-74
2024/01/06 03:40:37;;;;;;;17.60;5.60;;;;;;;;;;4952772;28;20046;-74
2024/01/06 03:43:04;;;;;;;10.70;5.43;;;;;;;;;;4952619;28;20051;-74
2024/01/06 03:45:31;;;;;;;17.77;5.60;;;;;;;;;;4957025;28;20146;-74
2024/01/06 03:48:00;;;;;;;13.57;5.18;;;;;;;;;;4951998;28;20130;-74
2024/01/06 03:50:27;;;;;;;15.23;5.10;;;;;;;;;;4954077;28;20055;-74
2024/01/06 03:52:55;;;;;;;12.27;5.22;;;;;;;;;;4951029;28;20129;-74
2024/01/06 03:55:22;;;;;;;8.95;4.93;;;;;;;;;;4953267;28;20167;-73
2024/01/06 03:57:49;;;;;;;14.18;5.63;;;;;;;;;;4951772;28;20474;-74
2024/01/06 04:00:17;;;;;;;12.75;5.07;;;;;;;;;;4952886;28;20043;-74
2024/01/06 04:02:44;;;;;;;16.70;5.43;;;;;;;;;;4951840;28;20057;-74
2024/01/06 04:05:13;;;;;;;17.02;5.93;;;;;;;;;;4953082;28;20065;-74
2024/01/06 04:07:40;;;;;;;12.73;5.30;;;;;;;;;;4951977;28;20047;-74
2024/01/06 04:10:08;;;;;;;19.65;7.10;;;;;;;;;;4952392;28;20065;-74
2024/01/06 04:12:35;;;;;;;8.35;4.13;;;;;;;;;;4951488;28;20454;-73
2024/01/06 04:15:03;;;;;;;11.80;5.28;;;;;;;;;;4951257;28;20054;-73
2024/01/06 04:17:30;;;;;;;14.27;5.30;;;;;;;;;;4950888;28;20078;-74
2024/01/06 04:19:57;;;;;;;11.70;5.40;;;;;;;;;;4951407;28;20073;-73
2024/01/06 04:22:26;;;;;;;12.32;6.05;;;;;;;;;;4953207;28;20517;-73
2024/01/06 04:24:53;;;;;;;15.45;4.97;;;;;;;;;;4950987;28;20409;-74
2024/01/06 04:27:20;;;;;;;12.13;4.75;;;;;;;;;;4950008;28;20413;-74
2024/01/06 04:29:48;;;;;;;12.27;5.07;;;;;;;;;;4949961;28;20450;-73
2024/01/06 04:32:15;;;;;;;12.50;4.97;;;;;;;;;;4953125;28;20046;-74
2024/01/06 04:34:42;;;;;;;11.52;4.57;;;;;;;;;;4969411;28;20062;-74
2024/01/06 04:37:10;;;;;;;12.23;4.60;;;;;;;;;;4958976;28;20530;-74
2024/01/06 04:39:38;;;;;;;18.10;5.10;;;;;;;;;;4957965;28;20134;-74
2024/01/06 04:42:06;;;;;;;12.40;4.68;;;;;;;;;;4958274;28;20050;-74
2024/01/06 04:44:33;;;;;;;16.45;5.00;;;;;;;;;;4957273;28;20050;-73
2024/01/06 04:47:00;;;;;;;13.98;4.97;;;;;;;;;;4975168;28;20161;-74
2024/01/06 04:49:28;;;;;;;17.52;5.43;;;;;;;;;;4955079;28;20423;-73
2024/01/06 04:51:55;;;;;;;9.95;4.32;;;;;;;;;;4955038;28;20054;-74
2024/01/06 04:54:23;;;;;;;16.10;5.53;;;;;;;;;;4957789;28;20065;-74
2024/01/06 04:56:51;;;;;;;13.90;5.20;;;;;;;;;;4959084;28;20054;-74
2024/01/06 04:59:19;;;;;;;12.48;5.40;;;;;;;;;;4956225;28;20518;-73
2024/01/06 05:01:46;;;;;;;15.60;5.20;;;;;;;;;;4970108;28;20629;-73
2024/01/06 05:04:13;;;;;;;14.40;5.18;;;;;;;;;;4959547;28;20058;-74
2024/01/06 05:06:40;;;;;;;18.98;5.78;;;;;;;;;;4953258;28;20840;-74
2024/01/06 05:09:07;;;;;;;14.18;5.35;;;;;;;;;;4958784;28;20058;-73
2024/01/06 05:11:35;;;;;;;15.75;5.80;;;;;;;;;;4958918;28;20133;-73
2024/01/06 05:14:03;;;;;;;11.85;5.00;;;;;;;;;;4955906;28;20057;-73
2024/01/06 05:16:31;;;;;;;15.32;6.13;;;;;;;;;;4971160;28;20047;-73
2024/01/06 05:18:58;;;;;;;19.25;5.88;;;;;;;;;;4959183;28;20046;-74
2024/01/06 05:21:25;;;;;;;17.50;5.53;;;;;;;;;;4957257;28;20047;-74
2024/01/06 05:23:52;;;;;;;12.73;5.80;;;;;;;;;;4958428;28;20086;-73
2024/01/06 05:26:20;;;;;;;17.05;5.60;;;;;;;;;;4959421;28;20058;-73
2024/01/06 05:28:47;;;;;;;19.38;5.63;;;;;;;;;;4959515;28;20058;-74
2024/01/06 05:31:16;;;;;;;19.85;5.93;;;;;;;;;;4956474;28;20102;-73
2024/01/06 05:33:43;;;;;;;16.40;5.50;;;;;;;;;;4954547;28;20051;-74
2024/01/06 05:36:10;;;;;;;12.52;5.72;;;;;;;;;;4966677;28;20058;-74
2024/01/06 05:38:38;;;;;;;13.50;5.90;;;;;;;;;;4975208;28;20046;-74
2024/01/06 05:41:05;;;;;;;13.15;5.95;;;;;;;;;;4957091;28;20042;-73
2024/01/06 05:43:32;;;;;;;18.73;5.90;;;;;;;;;;4957678;28;20066;-74
2024/01/06 05:45:59;;;;;;;17.55;5.72;;;;;;;;;;4974089;28;20137;-73
2024/01/06 05:48:28;;;;;;;15.98;6.00;;;;;;;;;;4954262;28;20077;-73
2024/01/06 05:50:55;;;;;;;12.63;5.80;;;;;;;;;;4954999;28;20410;-74
2024/01/06 05:53:23;;;;;;;13.50;5.60;;;;;;;;;;4956082;28;19926;-74
2024/01/06 05:55:50;;;;;;;16.60;5.82;;;;;;;;;;4954897;28;20059;-73
2024/01/06 05:58:17;;;;;;;12.85;5.28;;;;;;;;;;4953417;28;20086;-74
2024/01/06 06:00:46;;;;;;;16.33;5.53;;;;;;;;;;4951800;28;20378;-74
2024/01/06 06:03:14;;;;;;;11.27;5.53;;;;;;;;;;4955503;28;20053;-74
2024/01/06 06:05:42;;;;;;;13.32;5.65;;;;;;;;;;4954831;28;20054;-74
2024/01/06 06:08:10;;;;;;;17.85;5.65;;;;;;;;;;4955912;28;20497;-74
2024/01/06 06:10:51;;;;;;;18.25;5.45;;;;;;;;;;4952423;28;20047;-73
2024/01/06 06:13:19;;;;;;;22.63;6.38;;;;;;;;;;4955160;28;20621;-74
2024/01/06 06:15:46;;;;;;;10.82;5.47;;;;;;;;;;4976645;28;20086;-73
2024/01/06 06:18:14;;;;;;;17.80;5.47;;;;;;;;;;4949850;28;20062;-74
2024/01/06 06:20:43;;;;;;;12.63;4.85;;;;;;;;;;4955296;28;20054;-74
2024/01/06 06:23:11;;;;;;;12.48;5.18;;;;;;;;;;4953541;28;20050;-74
2024/01/06 06:25:40;;;;;;;15.13;5.45;;;;;;;;;;4960385;28;20062;-74
2024/01/06 06:28:07;;;;;;;13.32;5.38;;;;;;;;;;4953376;28;20406;-74
2024/01/06 06:30:34;;;;;;;12.05;5.40;;;;;;;;;;4948776;28;20050;-73
2024/01/06 06:33:02;;;;;;;11.35;5.13;;;;;;;;;;4953188;28;20065;-73
2024/01/06 06:35:29;;;;;;;16.17;5.93;;;;;;;;;;4954763;28;20057;-73
2024/01/06 06:37:57;;;;;;;15.88;5.22;;;;;;;;;;4953575;28;20051;-73
2024/01/06 06:40:25;;;;;;;14.65;5.65;;;;;;;;;;4954177;28;20069;-74
2024/01/06 06:42:52;;;;;;;15.63;5.78;;;;;;;;;;4950976;28;20047;-73
2024/01/06 06:45:22;;;;;;;13.38;5.57;;;;;;;;;;4955088;28;20054;-73
2024/01/06 06:47:50;;;;;;;14.15;5.97;;;;;;;;;;4951949;28;20051;-73
2024/01/06 06:50:17;;;;;;;14.32;5.47;;;;;;;;;;4954185;28;20078;-73
2024/01/06 06:52:44;;;;;;;17.27;5.75;;;;;;;;;;4953254;28;20046;-73
2024/01/06 06:55:13;;;;;;;16.73;6.25;;;;;;;;;;4953997;28;20058;-73
2024/01/06 06:57:40;;;;;;;13.27;5.72;;;;;;;;;;4954264;28;20062;-73
2024/01/06 07:00:08;;;;;;;13.70;5.40;;;;;;;;;;4968655;28;20532;-73
2024/01/06 07:02:36;;;;;;;12.77;5.55;;;;;;;;;;4952311;28;20414;-74
2024/01/06 07:05:04;;;;;;;19.98;6.05;;;;;;;;;;4948392;28;20065;-74
2024/01/06 07:07:31;;;;;;;14.23;6.13;;;;;;;;;;4952533;28;20510;-74
2024/01/06 07:09:59;;;;;;;14.18;5.63;;;;;;;;;;4960040;28;20055;-75
2024/01/06 07:12:27;;;;;;;13.88;6.28;;;;;;;;;;4950856;28;20051;-72
2024/01/06 07:14:55;;;;;;;12.10;5.47;;;;;;;;;;4958045;28;20056;-72
2024/01/06 07:17:22;;;;;;;11.73;5.72;;;;;;;;;;4952541;28;20073;-72
2024/01/06 07:19:49;;;;;;;18.85;5.43;;;;;;;;;;4957444;28;20054;-74
2024/01/06 07:22:18;;;;;;;18.25;5.65;;;;;;;;;;4948600;28;20374;-74
2024/01/06 07:24:45;;;;;;;14.70;5.75;;;;;;;;;;4948450;28;20055;-73
2024/01/06 07:27:13;;;;;;;13.18;5.60;;;;;;;;;;4954355;28;20062;-73
2024/01/06 07:29:41;;;;;;;15.48;6.13;;;;;;;;;;4955327;28;20550;-74
2024/01/06 07:32:09;;;;;;;17.55;5.88;;;;;;;;;;4949570;28;20050;-73
2024/01/06 07:34:36;;;;;;;14.23;6.25;;;;;;;;;;4945979;28;20055;-74
2024/01/06 07:37:03;;;;;;;13.48;6.00;;;;;;;;;;4947089;28;20065;-73
2024/01/06 07:39:33;;;;;;;15.32;6.38;;;;;;;;;;4952318;28;20062;-74
2024/01/06 07:42:00;;;;;;;17.63;6.40;;;;;;;;;;4953224;28;20050;-75
2024/01/06 07:44:28;;;;;;;13.63;6.25;;;;;;;;;;4957631;28;20095;-79
2024/01/06 07:46:56;;;;;;;13.15;6.10;;;;;;;;;;4953331;28;20046;-76
2024/01/06 07:49:23;;;;;;;14.43;5.70;;;;;;;;;;4949955;28;20054;-76
2024/01/06 07:51:51;;;;;;;22.30;6.53;;;;;;;;;;4948105;28;20055;-74
2024/01/06 07:54:18;;;;;;;12.60;6.13;;;;;;;;;;4950820;28;20047;-78
2024/01/06 07:56:45;;;;;;;15.90;5.82;;;;;;;;;;4951172;28;20134;-78
2024/01/06 07:59:13;;;;;;;12.43;6.53;;;;;;;;;;4954797;28;20398;-75
2024/01/06 08:01:42;;;;;;;14.05;6.88;;;;;;;;;;4952496;28;20047;-74
2024/01/06 08:04:11;;;;;;;23.17;6.53;;;;;;;;;;4951312;28;20558;-75
2024/01/06 08:06:38;;;;;;;10.15;5.43;;;;;;;;;;4951236;28;20082;-75
2024/01/06 08:09:06;;;;;;;12.68;5.90;;;;;;;;;;4950516;28;20053;-75
2024/01/06 08:11:33;;;;;;;10.35;5.25;;;;;;;;;;4948912;28;20105;-76
2024/01/06 08:14:00;;;;;;;12.77;4.88;;;;;;;;;;4946689;28;20043;-75
2024/01/06 08:16:27;;;;;;;11.95;5.07;;;;;;;;;;4953237;28;20611;-75
2024/01/06 08:18:54;;;;;;;10.38;4.32;;;;;;;;;;4948934;28;20046;-75
2024/01/06 08:21:23;;;;;;;15.23;5.07;;;;;;;;;;4953182;28;20065;-74
2024/01/06 08:23:50;;;;;;;9.95;5.22;;;;;;;;;;4944172;28;20539;-76
2024/01/06 08:26:18;;;;;;;10.48;5.60;;;;;;;;;;4962773;28;20055;-75
2024/01/06 08:28:45;;;;;;;14.00;6.45;;;;;;;;;;4967851;28;20410;-75
2024/01/06 08:31:12;;;;;;;14.25;6.22;;;;;;;;;;4950734;28;20058;-75
2024/01/06 08:33:40;;;;;;;18.27;5.75;;;;;;;;;;4952591;28;20043;-76
2024/01/06 08:36:08;;;;;;;17.05;6.57;;;;;;;;;;4951762;28;20081;-75
2024/01/06 08:38:36;;;;;;;14.38;5.70;;;;;;;;;;4943901;28;20074;-76
2024/01/06 08:41:04;;;;;;;12.00;5.35;;;;;;;;;;4949516;28;20054;-75
2024/01/06 08:43:31;;;;;;;15.13;6.70;;;;;;;;;;4961910;28;20414;-75
2024/01/06 08:45:58;;;;;;;13.23;6.40;;;;;;;;;;4949399;28;20051;-74
2024/01/06 08:48:25;;;;;;;13.32;6.60;;;;;;;;;;4942616;28;20082;-75
2024/01/06 08:50:53;;;;;;;14.73;6.38;;;;;;;;;;4949085;28;20054;-75
2024/01/06 08:53:20;;;;;;;12.27;6.30;;;;;;;;;;4968431;28;20057;-75
2024/01/06 08:55:49;;;;;;;15.00;6.25;;;;;;;;;;4952192;28;20054;-75
2024/01/06 08:58:17;;;;;;;18.92;6.80;;;;;;;;;;4950269;28;20051;-76
2024/01/06 09:00:44;;;;;;;17.65;6.88;;;;;;;;;;4948844;28;20054;-74
2024/01/06 09:03:12;;;;;;;11.43;6.15;;;;;;;;;;4966226;28;20046;-75
2024/01/06 09:05:39;;;;;;;12.57;6.55;;;;;;;;;;4949287;28;20121;-75
2024/01/06 09:08:07;;;;;;;10.95;6.00;;;;;;;;;;4952442;28;20045;-75
2024/01/06 09:10:36;;;;;;;14.15;6.47;;;;;;;;;;4950964;28;20138;-75
2024/01/06 09:13:04;;;;;;;20.45;7.15;;;;;;;;;;4951352;28;20082;-75
2024/01/06 09:15:32;;;;;;;13.70;7.20;;;;;;;;;;4949931;28;20062;-75
2024/01/06 09:17:59;;;;;;;18.38;6.90;;;;;;;;;;4950697;28;20399;-75
2024/01/06 09:20:27;;;;;;;14.15;6.43;;;;;;;;;;4949571;28;20061;-75
2024/01/06 09:22:54;;;;;;;14.85;6.93;;;;;;;;;;4954723;28;20410;-75
2024/01/06 09:25:24;;;;;;;15.60;6.40;;;;;;;;;;4955188;28;20081;-74
2024/01/06 09:27:52;;;;;;;16.83;7.15;;;;;;;;;;4955295;28;20047;-75
2024/01/06 09:30:21;;;;;;;15.82;6.20;;;;;;;;;;4956930;28;20061;-75
2024/01/06 09:32:49;;;;;;;11.23;6.20;;;;;;;;;;4953539;28;20055;-75
2024/01/06 09:35:16;;;;;;;18.27;6.45;;;;;;;;;;4953465;28;20054;-75
2024/01/06 09:37:43;;;;;;;19.00;6.40;;;;;;;;;;4954428;28;20057;-75
2024/01/06 09:40:13;;;;;;;16.77;6.68;;;;;;;;;;4953636;28;20054;-75
2024/01/06 09:42:40;;;;;;;13.70;6.28;;;;;;;;;;4951984;28;20585;-74
2024/01/06 09:45:08;;;;;;;11.55;6.53;;;;;;;;;;4951975;28;20477;-74
2024/01/06 09:47:44;;;;;;;14.35;6.97;;;;;;;;;;4951828;28;20051;-75
2024/01/06 09:50:11;;;;;;;12.45;6.28;;;;;;;;;;4953280;28;20542;-75
2024/01/06 09:52:41;;;;;;;12.35;7.15;;;;;;;;;;4957755;28;20046;-74
2024/01/06 09:55:10;;;;;;;23.25;7.45;;;;;;;;;;4951739;28;20052;-75
2024/01/06 09:57:38;;;;;;;16.98;7.30;;;;;;;;;;4953366;28;20062;-75
2024/01/06 10:00:08;;;;;;;22.08;7.40;;;;;;;;;;4956135;28;20050;-75
2024/01/06 10:02:35;;;;;;;18.42;7.97;;;;;;;;;;4968305;28;20079;-76
2024/01/06 10:05:04;;;;;;;17.77;7.18;;;;;;;;;;4954022;28;20043;-75
2024/01/06 10:07:31;;;;;;;20.05;7.45;;;;;;;;;;4950720;28;20050;-75
2024/01/06 10:09:59;;;;;;;17.40;7.75;;;;;;;;;;4950833;28;20442;-75
2024/01/06 10:12:26;;;;;;;12.77;7.45;;;;;;;;;;4960756;28;20055;-75
2024/01/06 10:14:54;;;;;;;16.63;8.00;;;;;;;;;;4958360;28;20076;-75
2024/01/06 10:17:21;;;;;;;17.50;7.80;;;;;;;;;;4954216;28;20062;-75
2024/01/06 10:19:49;;;;;;;15.57;7.65;;;;;;;;;;4953858;28;20062;-75
2024/01/06 10:22:18;;;;;;;23.70;7.18;;;;;;;;;;4965941;28;20430;-76
2024/01/06 10:24:45;;;;;;;16.55;7.18;;;;;;;;;;4953955;28;20039;-75
2024/01/06 10:27:13;;;;;;;15.13;6.93;;;;;;;;;;4957664;28;20068;-75
2024/01/06 10:29:42;;;;;;;16.08;7.78;;;;;;;;;;4949746;28;20522;-75
2024/01/06 10:32:09;;;;;;;18.52;7.32;;;;;;;;;;4955153;28;20117;-75
2024/01/06 10:34:38;;;;;;;11.32;6.07;;;;;;;;;;4952132;28;20047;-75
2024/01/06 10:37:06;;;;;;;14.75;7.10;;;;;;;;;;4954471;28;20047;-75
2024/01/06 10:39:34;;;;;;;14.07;7.00;;;;;;;;;;4953440;28;20646;-75
2024/01/06 10:42:02;;;;;;;13.50;6.85;;;;;;;;;;4954075;28;20417;-75
2024/01/06 10:44:30;;;;;;;14.88;7.15;;;;;;;;;;4944288;28;20054;-74
2024/01/06 10:46:58;;;;;;;13.40;6.57;;;;;;;;;;4954352;28;20051;-75
2024/01/06 10:49:26;;;;;;;12.80;6.53;;;;;;;;;;4955385;28;20071;-75
2024/01/06 10:51:55;;;;;;;13.55;6.60;;;;;;;;;;4959145;28;20054;-75
2024/01/06 10:54:22;;;;;;;13.48;6.35;;;;;;;;;;4953602;28;20050;-75
2024/01/06 10:56:53;;;;;;;16.15;6.97;;;;;;;;;;4953879;28;20050;-75
2024/01/06 10:59:22;;;;;;;14.93;6.32;;;;;;;;;;4953952;28;20055;-75
2024/01/06 11:01:52;;;;;;;15.52;6.63;;;;;;;;;;4949435;28;20109;-75
2024/01/06 11:04:20;;;;;;;16.83;7.03;;;;;;;;;;4960712;28;20230;-75
2024/01/06 11:06:47;;;;;;;17.17;6.25;;;;;;;;;;4953862;28;20057;-75
2024/01/06 11:09:18;;;;;;;16.38;6.07;;;;;;;;;;4953063;28;20254;-76
2024/01/06 11:11:45;;;;;;;18.13;5.90;;;;;;;;;;4950114;28;20070;-76
2024/01/06 11:14:20;;;;;;;17.73;6.10;;;;;;;;;;4953392;28;20054;-76
2024/01/06 11:16:48;;;;;;;16.15;6.68;;;;;;;;;;4951932;28;20051;-76
2024/01/06 11:19:34;;;;;;;13.35;6.55;;;;;;;;;;4954325;28;20525;-76
2024/01/06 11:22:19;;;;;;;11.43;6.10;;;;;;;;;;4955942;28;20057;-75
2024/01/06 11:24:49;;;;;;;11.02;5.57;;;;;;;;;;4949077;28;20054;-75
2024/01/06 11:27:19;;;;;;;15.07;6.07;;;;;;;;;;4947477;28;20065;-76
2024/01/06 11:29:48;;;;;;;13.52;6.28;;;;;;;;;;4950428;28;20502;-74
2024/01/06 11:32:20;;;;;;;15.07;6.57;;;;;;;;;;4953849;28;20548;-75
2024/01/06 11:34:52;;;;;;;15.57;6.15;;;;;;;;;;4950869;28;20094;-75
2024/01/06 11:37:37;;;;;;;21.52;6.40;;;;;;;;;;4941931;28;20407;-75
2024/01/06 11:40:05;;;;;;;13.98;6.20;;;;;;;;;;4952742;28;20074;-75
2024/01/06 11:42:36;;;;;;;20.48;6.25;;;;;;;;;;4952882;28;20520;-75
2024/01/06 11:45:06;;;;;;;19.42;6.18;;;;;;;;;;4952653;28;20053;-76
2024/01/06 11:47:34;;;;;;;15.25;5.97;;;;;;;;;;4952279;28;20494;-75
2024/01/06 11:50:04;;;;;;;12.05;5.68;;;;;;;;;;4951567;28;20500;-75
2024/01/06 11:52:31;;;;;;;11.15;5.35;;;;;;;;;;4954810;28;20126;-75
2024/01/06 11:54:59;;;;;;;12.13;5.60;;;;;;;;;;4956238;28;20526;-75
2024/01/06 11:57:27;;;;;;;13.30;5.30;;;;;;;;;;4959260;28;20062;-76
2024/01/06 11:59:54;;;;;;;10.07;5.13;;;;;;;;;;4961513;28;20110;-74
2024/01/06 12:02:23;;;;;;;9.80;5.40;;;;;;;;;;4958129;28;20049;-75
2024/01/06 12:04:51;;;;;;;13.70;4.88;;;;;;;;;;4954730;28;20410;-74
2024/01/06 12:07:19;;;;;;;9.30;4.78;;;;;;;;;;4951445;28;20054;-75
2024/01/06 12:09:47;;;;;;;10.98;4.93;;;;;;;;;;4951380;28;20397;-74
2024/01/06 12:12:16;;;;;;;9.02;4.70;;;;;;;;;;4949153;28;20061;-74
2024/01/06 12:14:45;;;;;;;7.53;4.43;;;;;;;;;;4942351;28;20051;-74
2024/01/06 12:17:13;;;;;;;11.93;4.55;;;;;;;;;;4950177;28;20125;-74
2024/01/06 12:19:42;;;;;;;8.80;4.63;;;;;;;;;;4951874;28;20051;-75
2024/01/06 12:22:11;;;;;;;9.45;4.65;;;;;;;;;;4948853;28;20047;-74
2024/01/06 12:24:39;;;;;;;7.82;4.82;;;;;;;;;;4960715;28;20044;-75
2024/01/06 12:27:09;;;;;;;8.10;4.53;;;;;;;;;;4949659;28;20050;-74
2024/01/06 12:29:39;;;;;;;10.85;4.88;;;;;;;;;;4945512;28;20154;-75
2024/01/06 12:32:07;;;;;;;10.60;4.90;;;;;;;;;;4948552;28;20047;-74
2024/01/06 12:34:34;;;;;;;17.58;5.40;;;;;;;;;;4937240;28;20491;-74
2024/01/06 12:37:03;;;;;;;13.10;5.43;;;;;;;;;;4942661;28;20061;-75
2024/01/06 12:39:31;;;;;;;10.80;5.05;;;;;;;;;;4944539;28;20526;-75
2024/01/06 12:42:00;;;;;;;12.80;5.15;;;;;;;;;;4945156;28;20485;-74
2024/01/06 12:44:27;;;;;;;13.98;4.97;;;;;;;;;;4951687;28;20054;-74
2024/01/06 12:46:55;;;;;;;9.27;4.80;;;;;;;;;;4948729;28;20059;-74
2024/01/06 12:49:22;;;;;;;8.63;4.50;;;;;;;;;;4948803;28;20058;-74
2024/01/06 12:51:50;;;;;;;8.23;4.63;;;;;;;;;;4949134;28;20190;-74
2024/01/06 12:54:18;;;;;;;11.82;4.55;;;;;;;;;;4957381;28;20043;-74
2024/01/06 12:56:46;;;;;;;10.75;4.90;;;;;;;;;;4958858;28;20050;-74
2024/01/06 12:59:13;;;;;;;7.63;4.53;;;;;;;;;;4958800;28;20050;-74
2024/01/06 13:01:40;;;;;;;10.57;4.93;;;;;;;;;;4958380;28;20061;-75
2024/01/06 13:04:08;;;;;;;12.15;5.15;;;;;;;;;;4955814;28;20047;-74
2024/01/06 13:06:36;;;;;;;7.85;4.38;;;;;;;;;;4956151;28;20062;-75
2024/01/06 13:09:06;;;;;;;7.85;4.35;;;;;;;;;;4952445;28;20054;-74
2024/01/06 13:11:35;;;;;;;10.35;4.93;;;;;;;;;;4956239;28;20055;-74
2024/01/06 13:14:03;;;;;;;11.32;4.22;;;;;;;;;;4955181;28;20042;-74
2024/01/06 13:16:30;;;;;;;8.90;3.95;;;;;;;;;;4956521;28;20086;-74
2024/01/06 13:18:57;;;;;;;9.38;4.82;;;;;;;;;;4955372;28;20047;-75
2024/01/06 13:21:25;;;;;;;9.05;4.75;;;;;;;;;;4956234;28;20047;-75
2024/01/06 13:23:52;;;;;;;8.05;4.15;;;;;;;;;;4954994;28;20142;-75
2024/01/06 13:26:19;;;;;;;7.95;4.10;;;;;;;;;;4956351;28;20524;-74
2024/01/06 13:28:48;;;;;;;8.75;4.13;;;;;;;;;;4952446;28;20058;-74
2024/01/06 13:31:15;;;;;;;8.10;3.60;;;;;;;;;;4954763;28;20054;-74
2024/01/06 13:33:43;;;;;;;7.90;3.97;;;;;;;;;;4954485;28;20109;-75
2024/01/06 13:36:10;;;;;;;5.93;3.60;;;;;;;;;;4969016;28;21629;-75
2024/01/06 13:38:37;;;;;;;6.97;3.40;;;;;;;;;;4953970;28;20460;-75
2024/01/06 13:41:04;;;;;;;12.80;4.47;;;;;;;;;;4949534;28;20050;-75
2024/01/06 13:43:32;;;;;;;7.95;3.83;;;;;;;;;;4955005;28;20086;-74
2024/01/06 13:46:01;;;;;;;11.82;3.95;;;;;;;;;;4952983;28;20058;-75
2024/01/06 13:48:28;;;;;;;6.80;3.70;;;;;;;;;;4972045;28;20054;-75
2024/01/06 13:50:56;;;;;;;8.30;4.20;;;;;;;;;;4955643;28;20055;-74
2024/01/06 13:53:23;;;;;;;10.65;4.07;;;;;;;;;;4954800;28;20093;-75
2024/01/06 13:55:51;;;;;;;7.15;4.05;;;;;;;;;;4953378;28;20057;-75
2024/01/06 13:58:19;;;;;;;7.13;3.80;;;;;;;;;;4956716;28;20055;-75
2024/01/06 14:00:47;;;;;;;9.15;4.70;;;;;;;;;;4955046;28;20054;-74
2024/01/06 14:03:16;;;;;;;11.77;4.80;;;;;;;;;;4955037;28;20058;-74
2024/01/06 14:05:43;;;;;;;8.57;4.53;;;;;;;;;;4953604;28;20089;-74
2024/01/06 14:08:10;;;;;;;7.80;3.90;;;;;;;;;;4953562;28;20053;-75
2024/01/06 14:10:38;;;;;;;9.43;4.05;;;;;;;;;;4959207;28;20105;-74
2024/01/06 14:13:07;;;;;;;7.22;3.50;;;;;;;;;;4959699;28;20055;-75
2024/01/06 14:15:35;;;;;;;14.57;3.95;;;;;;;;;;4943085;28;20047;-74
2024/01/06 14:18:02;;;;;;;7.50;4.07;;;;;;;;;;4947584;28;20564;-74
2024/01/06 14:20:31;;;;;;;10.05;4.05;;;;;;;;;;4953571;28;20050;-75
2024/01/06 14:22:59;;;;;;;6.45;3.97;;;;;;;;;;4951654;28;20398;-74
2024/01/06 14:25:26;;;;;;;6.28;4.22;;;;;;;;;;4951848;28;20046;-74
2024/01/06 14:27:54;;;;;;;7.35;3.63;;;;;;;;;;4951062;28;20050;-75
2024/01/06 14:30:21;;;;;;;6.65;3.80;;;;;;;;;;4953663;28;20061;-75
2024/01/06 14:32:48;;;;;;;6.65;3.63;;;;;;;;;;4951782;28;20124;-75
2024/01/06 14:35:16;;;;;;;7.00;3.45;;;;;;;;;;4953061;28;20134;-75